Sunday, October 22, 2017, 5:08 PM EDT
Back to Local

KFDK, Frederick, Frederick Municipal Airport

Location: Frederick, MD, United States Lat: 39.417
Local Time: 5:08 PM EDT (21:08 GMT) Lon: -77.374
Time Zone: US/Eastern Elev: 301 ft

Show me the last for .
Show Decoded

2017-10-22 16:50 METAR KFDK 222050Z 14006KT 10SM SCT250 25/10 A3032 =
2017-10-22 15:47 METAR KFDK 221947Z 18004KT 10SM SKC 26/11 A3033 =
2017-10-22 14:47 METAR KFDK 221847Z 14004KT 10SM SKC 26/11 A3033 =
2017-10-22 13:47 METAR KFDK 221747Z 18007KT 10SM SKC 26/11 A3036 =
2017-10-22 12:47 METAR KFDK 221647Z 00000KT 10SM SKC 22/10 A3038 =
2017-10-22 11:47 METAR KFDK 221547Z 00000KT 10SM SKC 20/09 A3040 =
2017-10-22 10:47 METAR KFDK 221447Z 00000KT 10SM SKC 17/09 A3042 =
2017-10-22 09:47 METAR KFDK 221347Z 00000KT 10SM SKC 14/09 A3043 =
2017-10-22 08:47 METAR KFDK 221247Z 00000KT 10SM SKC 10/10 A3043 =
2017-10-22 07:47 METAR KFDK 221147Z 00000KT 10SM SKC 07/07 A3041 =
2017-10-22 06:50 METAR KFDK 221050Z AUTO 00000KT 5SM BR CLR 07/07 A3041 RMK AO2 =
2017-10-22 06:45 METAR KFDK 221045Z AUTO 00000KT 10SM CLR 07/07 A3041 RMK AO2 =
2017-10-22 06:25 METAR KFDK 221025Z AUTO 00000KT 7SM CLR 07/07 A3040 RMK AO2 =
2017-10-22 06:05 METAR KFDK 221005Z AUTO 00000KT 10SM CLR 07/07 A3040 RMK AO2 =
2017-10-22 05:45 METAR KFDK 220945Z AUTO 00000KT 5SM BR CLR 07/07 A3040 RMK AO2 =
2017-10-22 05:25 METAR KFDK 220925Z AUTO 00000KT 7SM CLR 07/07 A3039 RMK AO2 =
2017-10-22 05:05 METAR KFDK 220905Z AUTO 00000KT 10SM CLR 07/07 A3039 RMK AO2 LTG DSNT W =
2017-10-22 04:45 METAR KFDK 220845Z AUTO 00000KT 10SM CLR 08/08 A3038 RMK AO2 =
2017-10-22 04:25 METAR KFDK 220825Z AUTO 00000KT 2SM BR CLR 07/07 A3037 RMK AO2 VIS 1/2V5 =
2017-10-22 04:05 METAR KFDK 220805Z AUTO 00000KT 2 1/2SM BR CLR 08/08 A3037 RMK AO2 VIS 3/4V5 =
2017-10-22 03:45 METAR KFDK 220745Z AUTO 00000KT 7SM CLR 07/07 A3037 RMK AO2 =
2017-10-22 03:25 METAR KFDK 220725Z AUTO 00000KT 1 1/2SM BR VV007 08/08 A3037 RMK AO2 VIS 3/4V4 =
2017-10-22 03:05 METAR KFDK 220705Z AUTO 00000KT 10SM CLR 08/08 A3037 RMK AO2 =
2017-10-22 02:45 METAR KFDK 220645Z AUTO 00000KT 1 3/4SM BR VV007 07/07 A3037 RMK AO2 VIS 3/4V5 =
2017-10-22 02:25 METAR KFDK 220625Z AUTO 00000KT 1 1/2SM BR VV007 08/08 A3037 RMK AO2 VIS 1/2V5 =
2017-10-22 02:05 METAR KFDK 220605Z AUTO 00000KT 10SM CLR 08/08 A3038 RMK AO2 =
2017-10-22 01:45 METAR KFDK 220545Z AUTO 00000KT 4SM BR CLR 08/08 A3038 RMK AO2 LTG DSNT W =
2017-10-22 01:25 METAR KFDK 220525Z AUTO 00000KT 10SM CLR 09/09 A3037 RMK AO2 =
2017-10-22 01:05 METAR KFDK 220505Z AUTO 00000KT 7SM CLR 09/09 A3038 RMK AO2 =
2017-10-22 00:45 METAR KFDK 220445Z AUTO 00000KT 10SM CLR 09/09 A3038 RMK AO2 =
2017-10-22 00:25 METAR KFDK 220425Z AUTO 00000KT 10SM CLR 09/09 A3038 RMK AO2 =
2017-10-22 00:05 METAR KFDK 220405Z AUTO 00000KT 10SM CLR 10/10 A3037 RMK AO2 =
2017-10-21 23:45 METAR KFDK 220345Z AUTO 00000KT 10SM CLR 10/10 A3038 RMK AO2 =
2017-10-21 23:25 METAR KFDK 220325Z AUTO 00000KT 10SM CLR 11/11 A3038 RMK AO2 =
2017-10-21 23:05 METAR KFDK 220305Z AUTO 00000KT 10SM CLR 10/10 A3039 RMK AO2 =
2017-10-21 22:45 METAR KFDK 220245Z AUTO 00000KT 10SM CLR 11/11 A3039 RMK AO2 =
2017-10-21 22:25 METAR KFDK 220225Z AUTO 00000KT 10SM CLR 11/11 A3039 RMK AO2 =
2017-10-21 22:05 METAR KFDK 220205Z AUTO 00000KT 10SM CLR 11/11 A3039 RMK AO2 =
2017-10-21 21:45 METAR KFDK 220145Z AUTO 00000KT 10SM CLR 12/12 A3038 RMK AO2 LTG DSNT W =
2017-10-21 21:25 METAR KFDK 220125Z AUTO 00000KT 10SM CLR 11/11 A3038 RMK AO2 =
2017-10-21 21:05 METAR KFDK 220105Z AUTO 00000KT 10SM CLR 12/12 A3038 RMK AO2 =
2017-10-21 18:47 METAR KFDK 212247Z 00000KT 10SM SKC 18/11 A3036 =
2017-10-21 17:47 METAR KFDK 212147Z 00000KT 10SM SKC 22/07 A3035 =

Support USWX by starting your Amazon purchase here.